sensor_id;sensor_type;location;lat;lon;timestamp;P1;durP1;ratioP1;P2;durP2;ratioP2
1593;SDS011;790;47.000;16.084;2023-08-21T00:01:24;15.07;;;13.88;;
1593;SDS011;790;47.000;16.084;2023-08-21T00:07:32;14.65;;;13.30;;
1593;SDS011;790;47.000;16.084;2023-08-21T00:17:56;13.18;;;12.07;;
1593;SDS011;790;47.000;16.084;2023-08-21T00:24:17;15.73;;;14.50;;
1593;SDS011;790;47.000;16.084;2023-08-21T00:30:38;14.02;;;12.75;;
1593;SDS011;790;47.000;16.084;2023-08-21T00:37:01;14.55;;;13.27;;
1593;SDS011;790;47.000;16.084;2023-08-21T00:43:22;15.48;;;14.18;;
1593;SDS011;790;47.000;16.084;2023-08-21T00:49:44;12.98;;;11.88;;
1593;SDS011;790;47.000;16.084;2023-08-21T00:56:07;14.02;;;12.90;;
1593;SDS011;790;47.000;16.084;2023-08-21T01:02:28;14.52;;;13.32;;
1593;SDS011;790;47.000;16.084;2023-08-21T01:08:50;15.18;;;13.93;;
1593;SDS011;790;47.000;16.084;2023-08-21T01:19:42;14.40;;;13.25;;
1593;SDS011;790;47.000;16.084;2023-08-21T01:25:55;14.18;;;12.73;;
1593;SDS011;790;47.000;16.084;2023-08-21T01:32:05;14.48;;;13.07;;
1593;SDS011;790;47.000;16.084;2023-08-21T01:38:16;14.75;;;13.55;;
1593;SDS011;790;47.000;16.084;2023-08-21T01:44:26;14.90;;;13.73;;
1593;SDS011;790;47.000;16.084;2023-08-21T01:50:33;14.25;;;13.07;;
1593;SDS011;790;47.000;16.084;2023-08-21T01:56:41;14.00;;;12.80;;
1593;SDS011;790;47.000;16.084;2023-08-21T02:02:50;14.90;;;13.60;;
1593;SDS011;790;47.000;16.084;2023-08-21T02:08:57;14.02;;;12.90;;
1593;SDS011;790;47.000;16.084;2023-08-21T02:19:21;14.55;;;13.25;;
1593;SDS011;790;47.000;16.084;2023-08-21T02:25:41;13.60;;;12.50;;
1593;SDS011;790;47.000;16.084;2023-08-21T02:32:04;13.40;;;12.32;;
1593;SDS011;790;47.000;16.084;2023-08-21T02:38:27;16.05;;;14.75;;
1593;SDS011;790;47.000;16.084;2023-08-21T02:44:48;14.85;;;13.68;;
1593;SDS011;790;47.000;16.084;2023-08-21T02:51:09;13.98;;;12.88;;
1593;SDS011;790;47.000;16.084;2023-08-21T02:57:32;13.32;;;12.23;;
1593;SDS011;790;47.000;16.084;2023-08-21T03:03:53;14.38;;;12.98;;
1593;SDS011;790;47.000;16.084;2023-08-21T03:10:14;13.13;;;11.88;;
1593;SDS011;790;47.000;16.084;2023-08-21T03:21:01;12.38;;;11.38;;
1593;SDS011;790;47.000;16.084;2023-08-21T03:27:08;12.90;;;11.90;;
1593;SDS011;790;47.000;16.084;2023-08-21T03:33:16;13.70;;;12.38;;
1593;SDS011;790;47.000;16.084;2023-08-21T03:39:25;13.27;;;12.27;;
1593;SDS011;790;47.000;16.084;2023-08-21T03:45:32;12.95;;;11.95;;
1593;SDS011;790;47.000;16.084;2023-08-21T03:51:40;14.30;;;12.95;;
1593;SDS011;790;47.000;16.084;2023-08-21T03:57:49;12.18;;;11.27;;
1593;SDS011;790;47.000;16.084;2023-08-21T04:03:56;13.73;;;12.65;;
1593;SDS011;790;47.000;16.084;2023-08-21T04:10:14;11.77;;;10.85;;
1593;SDS011;790;47.000;16.084;2023-08-21T04:20:38;14.02;;;12.88;;
1593;SDS011;790;47.000;16.084;2023-08-21T04:26:59;13.52;;;12.43;;
1593;SDS011;790;47.000;16.084;2023-08-21T04:33:22;14.70;;;13.60;;
1593;SDS011;790;47.000;16.084;2023-08-21T04:39:46;14.65;;;13.35;;
1593;SDS011;790;47.000;16.084;2023-08-21T04:46:11;15.30;;;14.10;;
1593;SDS011;790;47.000;16.084;2023-08-21T04:52:33;14.90;;;13.77;;
1593;SDS011;790;47.000;16.084;2023-08-21T04:58:56;15.73;;;14.32;;
1593;SDS011;790;47.000;16.084;2023-08-21T05:05:18;13.55;;;12.35;;
1593;SDS011;790;47.000;16.084;2023-08-21T05:11:39;14.55;;;13.35;;
1593;SDS011;790;47.000;16.084;2023-08-21T05:22:07;14.73;;;13.25;;
1593;SDS011;790;47.000;16.084;2023-08-21T05:28:15;15.95;;;14.52;;
1593;SDS011;790;47.000;16.084;2023-08-21T05:34:23;18.73;;;17.15;;
1593;SDS011;790;47.000;16.084;2023-08-21T05:40:33;19.33;;;17.55;;
1593;SDS011;790;47.000;16.084;2023-08-21T05:46:41;17.98;;;16.48;;
1593;SDS011;790;47.000;16.084;2023-08-21T05:52:48;17.15;;;15.65;;
1593;SDS011;790;47.000;16.084;2023-08-21T05:58:57;17.45;;;15.95;;
1593;SDS011;790;47.000;16.084;2023-08-21T06:05:05;16.30;;;15.00;;
1593;SDS011;790;47.000;16.084;2023-08-21T06:11:14;15.98;;;14.57;;
1593;SDS011;790;47.000;16.084;2023-08-21T06:17:23;16.02;;;14.55;;
1593;SDS011;790;47.000;16.084;2023-08-21T06:23:41;15.20;;;13.88;;
1593;SDS011;790;47.000;16.084;2023-08-21T06:29:49;16.30;;;14.80;;
1593;SDS011;790;47.000;16.084;2023-08-21T06:35:58;15.77;;;14.38;;
1593;SDS011;790;47.000;16.084;2023-08-21T06:42:06;15.50;;;14.07;;
1593;SDS011;790;47.000;16.084;2023-08-21T06:48:15;14.82;;;13.63;;
1593;SDS011;790;47.000;16.084;2023-08-21T06:54:25;14.00;;;12.80;;
1593;SDS011;790;47.000;16.084;2023-08-21T07:00:34;15.57;;;14.38;;
1593;SDS011;790;47.000;16.084;2023-08-21T07:06:42;14.52;;;13.23;;
1593;SDS011;790;47.000;16.084;2023-08-21T07:12:51;14.07;;;12.88;;
1593;SDS011;790;47.000;16.084;2023-08-21T07:23:25;14.90;;;13.50;;
1593;SDS011;790;47.000;16.084;2023-08-21T07:29:48;13.88;;;12.68;;
1593;SDS011;790;47.000;16.084;2023-08-21T07:36:08;14.60;;;13.45;;
1593;SDS011;790;47.000;16.084;2023-08-21T07:42:34;14.48;;;13.32;;
1593;SDS011;790;47.000;16.084;2023-08-21T07:48:57;13.55;;;12.45;;
1593;SDS011;790;47.000;16.084;2023-08-21T07:55:18;13.30;;;12.20;;
1593;SDS011;790;47.000;16.084;2023-08-21T08:01:41;12.95;;;11.65;;
1593;SDS011;790;47.000;16.084;2023-08-21T08:08:03;12.38;;;11.32;;
1593;SDS011;790;47.000;16.084;2023-08-21T08:14:25;11.98;;;10.88;;
1593;SDS011;790;47.000;16.084;2023-08-21T08:25:11;11.88;;;10.80;;
1593;SDS011;790;47.000;16.084;2023-08-21T08:31:20;10.90;;;10.00;;
1593;SDS011;790;47.000;16.084;2023-08-21T08:37:29;10.77;;;9.88;;
1593;SDS011;790;47.000;16.084;2023-08-21T08:43:39;10.00;;;9.00;;
1593;SDS011;790;47.000;16.084;2023-08-21T08:49:48;10.02;;;9.18;;
1593;SDS011;790;47.000;16.084;2023-08-21T08:55:57;10.10;;;9.27;;
1593;SDS011;790;47.000;16.084;2023-08-21T09:02:08;8.95;;;8.35;;
1593;SDS011;790;47.000;16.084;2023-08-21T09:08:17;9.15;;;8.35;;
1593;SDS011;790;47.000;16.084;2023-08-21T09:14:27;9.07;;;8.45;;
1593;SDS011;790;47.000;16.084;2023-08-21T09:25:01;9.95;;;8.13;;
1593;SDS011;790;47.000;16.084;2023-08-21T09:31:29;8.65;;;7.78;;
1593;SDS011;790;47.000;16.084;2023-08-21T09:37:52;8.10;;;7.43;;
1593;SDS011;790;47.000;16.084;2023-08-21T09:44:14;12.00;;;8.25;;
1593;SDS011;790;47.000;16.084;2023-08-21T09:50:36;8.27;;;7.57;;
1593;SDS011;790;47.000;16.084;2023-08-21T09:57:00;8.63;;;7.88;;
1593;SDS011;790;47.000;16.084;2023-08-21T10:03:24;8.27;;;7.57;;
1593;SDS011;790;47.000;16.084;2023-08-21T10:09:45;7.68;;;7.07;;
1593;SDS011;790;47.000;16.084;2023-08-21T10:16:08;8.10;;;7.25;;
1593;SDS011;790;47.000;16.084;2023-08-21T10:26:59;7.30;;;6.60;;
1593;SDS011;790;47.000;16.084;2023-08-21T10:33:07;6.28;;;5.88;;
1593;SDS011;790;47.000;16.084;2023-08-21T10:39:16;6.72;;;6.22;;
1593;SDS011;790;47.000;16.084;2023-08-21T10:45:26;7.28;;;6.72;;
1593;SDS011;790;47.000;16.084;2023-08-21T10:51:34;6.70;;;5.97;;
1593;SDS011;790;47.000;16.084;2023-08-21T10:57:42;6.60;;;6.10;;
1593;SDS011;790;47.000;16.084;2023-08-21T11:03:54;8.27;;;7.45;;
1593;SDS011;790;47.000;16.084;2023-08-21T11:10:02;7.00;;;6.40;;
1593;SDS011;790;47.000;16.084;2023-08-21T11:16:11;6.72;;;6.13;;
1593;SDS011;790;47.000;16.084;2023-08-21T11:26:35;6.78;;;6.18;;
1593;SDS011;790;47.000;16.084;2023-08-21T11:33:06;7.97;;;5.78;;
1593;SDS011;790;47.000;16.084;2023-08-21T11:39:38;6.68;;;6.07;;
1593;SDS011;790;47.000;16.084;2023-08-21T11:46:02;5.32;;;5.00;;
1593;SDS011;790;47.000;16.084;2023-08-21T11:52:23;5.20;;;4.80;;
1593;SDS011;790;47.000;16.084;2023-08-21T11:58:45;5.82;;;5.28;;
1593;SDS011;790;47.000;16.084;2023-08-21T12:05:13;5.90;;;4.72;;
1593;SDS011;790;47.000;16.084;2023-08-21T12:11:35;5.85;;;5.35;;
1593;SDS011;790;47.000;16.084;2023-08-21T12:17:58;6.30;;;5.80;;
1593;SDS011;790;47.000;16.084;2023-08-21T12:28:54;6.85;;;5.63;;
1593;SDS011;790;47.000;16.084;2023-08-21T12:35:02;6.93;;;6.13;;
1593;SDS011;790;47.000;16.084;2023-08-21T12:41:11;7.43;;;6.03;;
1593;SDS011;790;47.000;16.084;2023-08-21T12:47:20;6.43;;;5.82;;
1593;SDS011;790;47.000;16.084;2023-08-21T12:53:28;6.63;;;6.03;;
1593;SDS011;790;47.000;16.084;2023-08-21T12:59:36;6.28;;;5.78;;
1593;SDS011;790;47.000;16.084;2023-08-21T13:05:45;6.88;;;6.28;;
1593;SDS011;790;47.000;16.084;2023-08-21T13:11:53;7.03;;;6.25;;
1593;SDS011;790;47.000;16.084;2023-08-21T13:18:02;11.50;;;6.75;;
1593;SDS011;790;47.000;16.084;2023-08-21T13:28:25;7.43;;;6.80;;
1593;SDS011;790;47.000;16.084;2023-08-21T13:34:47;6.90;;;6.40;;
1593;SDS011;790;47.000;16.084;2023-08-21T13:41:08;6.90;;;6.38;;
1593;SDS011;790;47.000;16.084;2023-08-21T13:47:30;6.85;;;6.35;;
1593;SDS011;790;47.000;16.084;2023-08-21T13:53:52;6.90;;;6.20;;
1593;SDS011;790;47.000;16.084;2023-08-21T14:00:13;6.90;;;6.20;;
1593;SDS011;790;47.000;16.084;2023-08-21T14:06:38;8.95;;;6.70;;
1593;SDS011;790;47.000;16.084;2023-08-21T14:13:00;7.32;;;6.75;;
1593;SDS011;790;47.000;16.084;2023-08-21T14:19:23;6.80;;;6.38;;
1593;SDS011;790;47.000;16.084;2023-08-21T14:30:11;6.28;;;5.68;;
1593;SDS011;790;47.000;16.084;2023-08-21T14:36:20;6.72;;;6.13;;
1593;SDS011;790;47.000;16.084;2023-08-21T14:42:27;7.72;;;6.45;;
1593;SDS011;790;47.000;16.084;2023-08-21T14:48:46;6.28;;;5.75;;
1593;SDS011;790;47.000;16.084;2023-08-21T14:54:54;6.85;;;6.20;;
1593;SDS011;790;47.000;16.084;2023-08-21T15:01:03;8.10;;;5.95;;
1593;SDS011;790;47.000;16.084;2023-08-21T15:07:13;6.47;;;6.00;;
1593;SDS011;790;47.000;16.084;2023-08-21T15:13:21;6.78;;;6.07;;
1593;SDS011;790;47.000;16.084;2023-08-21T15:19:29;6.38;;;5.80;;
1593;SDS011;790;47.000;16.084;2023-08-21T15:29:52;6.50;;;6.00;;
1593;SDS011;790;47.000;16.084;2023-08-21T15:36:13;6.35;;;5.75;;
1593;SDS011;790;47.000;16.084;2023-08-21T15:42:34;6.88;;;6.18;;
1593;SDS011;790;47.000;16.084;2023-08-21T15:48:56;6.93;;;6.22;;
1593;SDS011;790;47.000;16.084;2023-08-21T15:55:18;6.53;;;6.03;;
1593;SDS011;790;47.000;16.084;2023-08-21T16:01:39;7.20;;;6.57;;
1593;SDS011;790;47.000;16.084;2023-08-21T16:08:01;7.25;;;6.63;;
1593;SDS011;790;47.000;16.084;2023-08-21T16:14:23;7.45;;;6.68;;
1593;SDS011;790;47.000;16.084;2023-08-21T16:20:44;8.07;;;7.32;;
1593;SDS011;790;47.000;16.084;2023-08-21T16:31:31;8.15;;;7.55;;
1593;SDS011;790;47.000;16.084;2023-08-21T16:37:39;7.20;;;6.65;;
1593;SDS011;790;47.000;16.084;2023-08-21T16:43:47;9.02;;;7.40;;
1593;SDS011;790;47.000;16.084;2023-08-21T16:49:56;7.82;;;7.22;;
1593;SDS011;790;47.000;16.084;2023-08-21T16:56:03;7.55;;;6.95;;
1593;SDS011;790;47.000;16.084;2023-08-21T17:02:11;8.23;;;7.53;;
1593;SDS011;790;47.000;16.084;2023-08-21T17:08:20;7.78;;;7.22;;
1593;SDS011;790;47.000;16.084;2023-08-21T17:14:48;8.63;;;7.82;;
1593;SDS011;790;47.000;16.084;2023-08-21T17:20:55;8.38;;;7.70;;
1593;SDS011;790;47.000;16.084;2023-08-21T17:31:28;12.80;;;8.15;;
1593;SDS011;790;47.000;16.084;2023-08-21T17:37:50;8.45;;;7.65;;
1593;SDS011;790;47.000;16.084;2023-08-21T17:44:11;9.02;;;8.30;;
1593;SDS011;790;47.000;16.084;2023-08-21T17:50:33;9.48;;;8.65;;
1593;SDS011;790;47.000;16.084;2023-08-21T17:56:54;9.32;;;7.93;;
1593;SDS011;790;47.000;16.084;2023-08-21T18:03:16;9.45;;;8.68;;
1593;SDS011;790;47.000;16.084;2023-08-21T18:09:38;8.73;;;8.07;;
1593;SDS011;790;47.000;16.084;2023-08-21T18:16:00;9.20;;;8.43;;
1593;SDS011;790;47.000;16.084;2023-08-21T18:22:21;8.90;;;8.10;;
1593;SDS011;790;47.000;16.084;2023-08-21T18:33:08;9.20;;;8.30;;
1593;SDS011;790;47.000;16.084;2023-08-21T18:39:16;9.45;;;8.48;;
1593;SDS011;790;47.000;16.084;2023-08-21T18:45:24;10.07;;;9.07;;
1593;SDS011;790;47.000;16.084;2023-08-21T18:51:35;10.35;;;9.02;;
1593;SDS011;790;47.000;16.084;2023-08-21T18:57:43;9.50;;;8.60;;
1593;SDS011;790;47.000;16.084;2023-08-21T19:03:50;10.30;;;9.35;;
1593;SDS011;790;47.000;16.084;2023-08-21T19:10:00;10.45;;;9.45;;
1593;SDS011;790;47.000;16.084;2023-08-21T19:16:09;10.98;;;10.07;;
1593;SDS011;790;47.000;16.084;2023-08-21T19:22:17;9.90;;;9.10;;
1593;SDS011;790;47.000;16.084;2023-08-21T19:32:41;11.82;;;10.70;;
1593;SDS011;790;47.000;16.084;2023-08-21T19:39:03;11.10;;;10.10;;
1593;SDS011;790;47.000;16.084;2023-08-21T19:45:24;11.90;;;10.90;;
1593;SDS011;790;47.000;16.084;2023-08-21T19:51:46;11.07;;;9.95;;
1593;SDS011;790;47.000;16.084;2023-08-21T19:58:08;10.13;;;9.32;;
1593;SDS011;790;47.000;16.084;2023-08-21T20:04:29;25.13;;;21.73;;
1593;SDS011;790;47.000;16.084;2023-08-21T20:10:51;19.58;;;17.65;;
1593;SDS011;790;47.000;16.084;2023-08-21T20:17:12;15.43;;;14.02;;
1593;SDS011;790;47.000;16.084;2023-08-21T20:23:34;13.48;;;12.18;;
1593;SDS011;790;47.000;16.084;2023-08-21T20:34:20;11.85;;;10.73;;
1593;SDS011;790;47.000;16.084;2023-08-21T20:40:28;12.25;;;11.35;;
1593;SDS011;790;47.000;16.084;2023-08-21T20:46:36;11.82;;;10.73;;
1593;SDS011;790;47.000;16.084;2023-08-21T20:52:45;12.40;;;11.38;;
1593;SDS011;790;47.000;16.084;2023-08-21T20:58:53;12.70;;;11.48;;
1593;SDS011;790;47.000;16.084;2023-08-21T21:05:01;12.05;;;11.02;;
1593;SDS011;790;47.000;16.084;2023-08-21T21:11:10;12.48;;;11.23;;
1593;SDS011;790;47.000;16.084;2023-08-21T21:17:18;12.05;;;11.15;;
1593;SDS011;790;47.000;16.084;2023-08-21T21:23:55;13.38;;;12.18;;
1593;SDS011;790;47.000;16.084;2023-08-21T21:34:28;13.07;;;11.77;;
1593;SDS011;790;47.000;16.084;2023-08-21T21:40:52;12.82;;;11.57;;
1593;SDS011;790;47.000;16.084;2023-08-21T21:47:14;11.07;;;10.05;;
1593;SDS011;790;47.000;16.084;2023-08-21T21:53:36;13.00;;;12.00;;
1593;SDS011;790;47.000;16.084;2023-08-21T21:59:58;12.07;;;11.07;;
1593;SDS011;790;47.000;16.084;2023-08-21T22:06:19;13.13;;;11.60;;
1593;SDS011;790;47.000;16.084;2023-08-21T22:12:41;11.65;;;10.57;;
1593;SDS011;790;47.000;16.084;2023-08-21T22:19:02;11.80;;;10.77;;
1593;SDS011;790;47.000;16.084;2023-08-21T22:25:23;9.48;;;8.77;;
1593;SDS011;790;47.000;16.084;2023-08-21T22:36:09;13.43;;;12.07;;
1593;SDS011;790;47.000;16.084;2023-08-21T22:42:17;12.68;;;11.63;;
1593;SDS011;790;47.000;16.084;2023-08-21T22:48:25;11.38;;;10.48;;
1593;SDS011;790;47.000;16.084;2023-08-21T22:54:34;11.57;;;10.63;;
1593;SDS011;790;47.000;16.084;2023-08-21T23:00:42;12.15;;;10.77;;
1593;SDS011;790;47.000;16.084;2023-08-21T23:06:49;11.82;;;10.73;;
1593;SDS011;790;47.000;16.084;2023-08-21T23:12:58;12.27;;;9.13;;
1593;SDS011;790;47.000;16.084;2023-08-21T23:19:06;13.15;;;10.90;;
1593;SDS011;790;47.000;16.084;2023-08-21T23:25:14;11.88;;;10.88;;
1593;SDS011;790;47.000;16.084;2023-08-21T23:35:38;11.45;;;10.55;;
1593;SDS011;790;47.000;16.084;2023-08-21T23:41:59;10.63;;;9.43;;
1593;SDS011;790;47.000;16.084;2023-08-21T23:48:20;11.93;;;10.77;;
1593;SDS011;790;47.000;16.084;2023-08-21T23:54:42;10.93;;;9.90;;
